Time;durP1;ratioP1;P1;durP2;ratioP2;P2;SDS_P1;SDS_P2;PMS_P1;PMS_P2;Temp;Humidity;BMP_temperature;BMP_pressure;BME280_temperature;BME280_humidity;BME280_pressure;Samples;Min_cycle;Max_cycle;Signal;HPM_P1;HPM_P2
2021/07/02 00:00:10;;;;;;;105.93;27.57;;;17.40;98.30;;;;;;5206570;22;20423;-85
2021/07/02 00:02:13;;;;;;;108.23;31.13;;;17.50;98.30;;;;;;5205851;22;20411;-82
2021/07/02 00:04:16;;;;;;;90.03;47.57;;;17.40;98.30;;;;;;5205177;22;20428;-82
2021/07/02 00:06:19;;;;;;;158.37;36.03;;;17.50;98.30;;;;;;5206279;22;20930;-82
2021/07/02 00:08:26;;;;;;;81.80;30.50;;;17.60;98.30;;;;;;5206267;22;20763;-82
2021/07/02 00:10:29;;;;;;;99.77;32.70;;;17.50;98.30;;;;;;5205426;22;20469;-82
2021/07/02 00:12:32;;;;;;;70.37;32.70;;;17.50;98.30;;;;;;5206074;22;20422;-89
2021/07/02 00:14:36;;;;;;;62.13;31.07;;;17.60;98.30;;;;;;5206304;22;20430;-86
2021/07/02 00:16:41;;;;;;;116.57;34.10;;;17.60;98.30;;;;;;5206081;22;20521;-82
2021/07/02 00:18:44;;;;;;;91.57;32.73;;;17.70;98.30;;;;;;5205896;22;20430;-82
2021/07/02 00:20:47;;;;;;;53.70;30.23;;;17.70;98.30;;;;;;5205317;22;20449;-86
2021/07/02 00:22:49;;;;;;;58.93;32.30;;;17.70;98.30;;;;;;5206106;22;20426;-82
2021/07/02 00:24:52;;;;;;;64.40;33.40;;;17.70;98.30;;;;;;5205806;22;20426;-86
2021/07/02 00:26:55;;;;;;;45.63;28.77;;;17.80;98.30;;;;;;5205337;22;20422;-82
2021/07/02 00:28:58;;;;;;;59.93;28.20;;;17.90;98.30;;;;;;5205854;22;20820;-82
2021/07/02 00:31:01;;;;;;;80.00;30.13;;;18.00;98.30;;;;;;5205844;22;20457;-84
2021/07/02 00:33:06;;;;;;;59.20;27.40;;;18.00;98.30;;;;;;5205445;22;20423;-82
2021/07/02 00:35:10;;;;;;;68.43;27.60;;;17.70;98.30;;;;;;5204865;22;20427;-82
2021/07/02 00:37:13;;;;;;;60.57;29.20;;;17.60;98.30;;;;;;5204517;22;20476;-82
2021/07/02 00:39:16;;;;;;;76.87;29.37;;;17.50;98.30;;;;;;5205224;22;20422;-81
2021/07/02 00:41:19;;;;;;;64.63;30.80;;;17.40;98.30;;;;;;5205224;22;20446;-82
2021/07/02 00:43:22;;;;;;;91.87;30.30;;;17.40;98.30;;;;;;5205660;22;20426;-82
2021/07/02 00:45:24;;;;;;;46.77;28.30;;;17.50;98.30;;;;;;5206029;22;20423;-83
2021/07/02 00:47:28;;;;;;;119.97;64.67;;;17.50;98.30;;;;;;5207428;22;20433;-82
2021/07/02 00:49:33;;;;;;;65.27;40.03;;;17.50;98.30;;;;;;5203184;22;20497;-82
2021/07/02 00:51:36;;;;;;;63.33;42.20;;;17.50;98.30;;;;;;5203031;22;20442;-82
2021/07/02 00:53:41;;;;;;;68.20;30.23;;;17.60;98.30;;;;;;5203095;22;20427;-81
2021/07/02 00:55:45;;;;;;;53.57;28.53;;;17.60;98.30;;;;;;5203217;22;20419;-82
2021/07/02 00:57:48;;;;;;;46.43;30.10;;;17.70;98.30;;;;;;5203650;22;20439;-83
2021/07/02 00:59:51;;;;;;;44.53;30.10;;;17.70;98.30;;;;;;5202822;22;20925;-82
2021/07/02 01:01:54;;;;;;;58.20;30.63;;;17.80;98.30;;;;;;5202997;22;20449;-82
2021/07/02 01:03:57;;;;;;;51.60;33.17;;;17.80;98.30;;;;;;5202863;22;20423;-82
2021/07/02 01:06:02;;;;;;;53.93;28.73;;;17.80;98.30;;;;;;5203067;22;20433;-84
2021/07/02 01:08:06;;;;;;;49.67;29.23;;;17.80;98.30;;;;;;5202491;22;20422;-83
2021/07/02 01:10:14;;;;;;;41.10;28.57;;;17.90;98.30;;;;;;5202508;22;20426;-81
2021/07/02 01:12:17;;;;;;;47.30;30.07;;;17.90;98.30;;;;;;5202482;22;20414;-84
2021/07/02 01:14:20;;;;;;;54.23;31.67;;;17.90;98.30;;;;;;5202275;22;20506;-82
2021/07/02 01:16:23;;;;;;;46.77;31.83;;;17.90;98.30;;;;;;5202322;22;20457;-82
2021/07/02 01:18:26;;;;;;;55.80;30.80;;;17.90;98.30;;;;;;5202243;22;20422;-82
2021/07/02 01:20:29;;;;;;;57.93;29.83;;;17.90;98.30;;;;;;5202508;22;20953;-82
2021/07/02 01:22:34;;;;;;;46.30;28.60;;;17.90;98.30;;;;;;5202714;22;20427;-83
2021/07/02 01:24:37;;;;;;;52.23;29.37;;;18.00;98.30;;;;;;5203145;22;20407;-83
2021/07/02 01:26:41;;;;;;;48.70;32.00;;;18.10;98.30;;;;;;5202622;22;20423;-83
2021/07/02 01:28:44;;;;;;;48.27;29.90;;;18.10;98.30;;;;;;5202410;22;20450;-85
2021/07/02 01:30:47;;;;;;;45.63;30.00;;;18.10;98.30;;;;;;5202375;22;20454;-84
2021/07/02 01:32:50;;;;;;;46.73;30.30;;;18.20;98.30;;;;;;5200982;22;20476;-83
2021/07/02 01:34:53;;;;;;;45.27;29.20;;;18.20;98.30;;;;;;5200308;22;20433;-84
2021/07/02 01:36:56;;;;;;;52.27;29.93;;;18.20;98.30;;;;;;5192212;22;20453;-83
2021/07/02 01:39:00;;;;;;;45.70;30.10;;;18.20;98.30;;;;;;5191825;22;20427;-83
2021/07/02 01:41:03;;;;;;;49.20;29.30;;;18.20;98.30;;;;;;5192394;22;20443;-83
2021/07/02 01:43:06;;;;;;;43.07;27.63;;;18.30;98.30;;;;;;5192487;22;20797;-83
2021/07/02 01:45:10;;;;;;;52.20;30.43;;;18.30;98.30;;;;;;5192128;22;20437;-84
2021/07/02 01:47:13;;;;;;;47.10;29.67;;;18.20;98.30;;;;;;5201520;22;20425;-83
2021/07/02 01:49:16;;;;;;;50.13;29.37;;;18.20;98.30;;;;;;5192441;22;20431;-83
2021/07/02 01:51:19;;;;;;;52.43;31.10;;;18.20;98.30;;;;;;5202260;22;20449;-83
2021/07/02 01:53:22;;;;;;;49.37;27.33;;;18.30;98.30;;;;;;5209707;22;20422;-84
2021/07/02 01:55:26;;;;;;;48.87;28.97;;;18.30;98.30;;;;;;5212625;22;20433;-84
2021/07/02 01:57:29;;;;;;;47.13;28.07;;;18.20;98.30;;;;;;5213059;22;20438;-84
2021/07/02 01:59:32;;;;;;;52.83;37.93;;;18.20;98.30;;;;;;5214647;22;20446;-84
2021/07/02 02:01:35;;;;;;;50.73;34.87;;;18.20;98.30;;;;;;5212605;22;20811;-84
2021/07/02 02:03:38;;;;;;;58.03;34.80;;;18.20;98.30;;;;;;5204433;22;20494;-83
2021/07/02 02:05:41;;;;;;;43.50;31.27;;;18.30;98.30;;;;;;5205649;22;20422;-84
2021/07/02 02:07:44;;;;;;;40.40;28.07;;;18.30;98.30;;;;;;5196690;22;20486;-83
2021/07/02 02:09:47;;;;;;;37.93;24.87;;;18.40;98.30;;;;;;5205792;22;20450;-84
2021/07/02 02:11:55;;;;;;;32.63;25.23;;;18.30;98.30;;;;;;5197986;22;20449;-84
2021/07/02 02:13:58;;;;;;;37.03;23.57;;;18.10;98.30;;;;;;5205608;22;20428;-84
2021/07/02 02:16:01;;;;;;;37.17;25.07;;;18.00;98.30;;;;;;5197308;22;20423;-84
2021/07/02 02:18:05;;;;;;;29.10;21.70;;;17.90;98.30;;;;;;5196304;22;20454;-84
2021/07/02 02:20:10;;;;;;;29.83;20.30;;;17.90;98.30;;;;;;5195167;22;20904;-84
2021/07/02 02:22:16;;;;;;;27.50;20.13;;;17.90;98.30;;;;;;5194870;22;20407;-83
2021/07/02 02:24:19;;;;;;;24.33;19.70;;;18.00;98.30;;;;;;5204535;22;20422;-83
2021/07/02 02:26:22;;;;;;;26.70;20.87;;;18.00;98.30;;;;;;5197281;22;21026;-83
2021/07/02 02:28:26;;;;;;;30.60;19.90;;;17.90;98.30;;;;;;5196538;22;20449;-83
2021/07/02 02:30:29;;;;;;;29.57;18.13;;;17.80;98.30;;;;;;5205160;22;20442;-83
2021/07/02 02:32:31;;;;;;;27.70;18.63;;;17.60;98.30;;;;;;5205518;22;20425;-84
2021/07/02 02:34:35;;;;;;;27.07;18.83;;;17.40;98.30;;;;;;5205480;22;20418;-83
2021/07/02 02:36:38;;;;;;;24.53;18.30;;;17.20;98.30;;;;;;5205183;22;20517;-83
2021/07/02 02:38:41;;;;;;;24.20;17.47;;;17.20;98.30;;;;;;5204710;22;20447;-84
2021/07/02 02:40:44;;;;;;;28.10;20.13;;;17.30;98.30;;;;;;5204690;22;20442;-83
2021/07/02 02:42:47;;;;;;;33.67;18.27;;;17.20;98.30;;;;;;5204142;22;20423;-84
2021/07/02 02:44:51;;;;;;;27.53;19.10;;;17.10;98.30;;;;;;5194772;22;20426;-83
2021/07/02 02:46:54;;;;;;;31.73;19.63;;;17.10;98.30;;;;;;5204896;22;20429;-84
2021/07/02 02:48:58;;;;;;;32.73;19.20;;;17.20;98.30;;;;;;5204444;22;20423;-84
2021/07/02 02:51:00;;;;;;;32.00;19.87;;;17.20;98.30;;;;;;5203870;22;20451;-82
2021/07/02 02:53:04;;;;;;;31.03;20.10;;;17.20;98.30;;;;;;5203022;22;20427;-82
2021/07/02 02:55:07;;;;;;;29.37;19.17;;;17.20;98.30;;;;;;5202303;22;20493;-82
2021/07/02 02:57:10;;;;;;;25.97;18.37;;;17.30;98.30;;;;;;5204161;22;20983;-85
2021/07/02 02:59:13;;;;;;;31.83;18.13;;;17.20;98.30;;;;;;5203530;22;20513;-84
2021/07/02 03:01:17;;;;;;;30.57;18.27;;;17.10;98.30;;;;;;5203484;22;20966;-83
2021/07/02 03:03:21;;;;;;;32.80;18.73;;;17.10;98.30;;;;;;5203566;22;20418;-83
2021/07/02 03:05:40;;;;;;;32.63;18.57;;;17.00;98.30;;;;;;5202713;22;20423;-83
2021/07/02 03:07:43;;;;;;;29.60;20.00;;;16.90;98.30;;;;;;5202180;22;20433;-83
2021/07/02 03:10:02;;;;;;;29.03;20.20;;;17.00;98.30;;;;;;5202992;22;20415;-83
2021/07/02 03:12:05;;;;;;;25.80;18.60;;;16.90;98.30;;;;;;5202518;22;20434;-82
2021/07/02 03:14:08;;;;;;;31.63;19.97;;;16.90;98.30;;;;;;5194115;22;20480;-83
2021/07/02 03:16:11;;;;;;;29.00;18.43;;;17.00;98.30;;;;;;5196271;22;20427;-83
2021/07/02 03:18:15;;;;;;;25.40;18.33;;;17.00;98.30;;;;;;5195584;22;20446;-85
2021/07/02 03:20:19;;;;;;;25.93;18.73;;;17.10;98.30;;;;;;5203946;22;20484;-84
2021/07/02 03:22:22;;;;;;;28.87;17.37;;;17.10;98.30;;;;;;5196481;22;20744;-83
2021/07/02 03:24:25;;;;;;;29.13;18.70;;;17.10;98.30;;;;;;5203878;22;20477;-83
2021/07/02 03:26:28;;;;;;;25.93;17.67;;;17.10;98.30;;;;;;5204908;22;20453;-83
2021/07/02 03:28:32;;;;;;;24.43;18.10;;;17.20;98.30;;;;;;5204500;22;20820;-83
2021/07/02 03:30:35;;;;;;;26.40;18.27;;;17.30;98.30;;;;;;5203474;22;20454;-83
2021/07/02 03:32:38;;;;;;;26.83;17.83;;;17.30;98.30;;;;;;5204515;22;20418;-83
2021/07/02 03:34:44;;;;;;;27.10;18.00;;;17.30;98.30;;;;;;5204342;22;20422;-82
2021/07/02 03:36:47;;;;;;;37.23;19.50;;;17.30;98.30;;;;;;5204045;22;20423;-83
2021/07/02 03:38:50;;;;;;;24.73;17.23;;;17.40;98.30;;;;;;5203781;22;20961;-83
2021/07/02 03:40:53;;;;;;;27.80;17.90;;;17.40;98.30;;;;;;5204250;22;20838;-83
2021/07/02 03:42:56;;;;;;;27.90;17.33;;;17.50;98.30;;;;;;5201813;22;20422;-83
2021/07/02 03:44:59;;;;;;;28.57;18.67;;;17.40;98.30;;;;;;5194790;22;20426;-83
2021/07/02 03:47:03;;;;;;;28.43;17.50;;;17.40;98.30;;;;;;5195618;22;20962;-83
2021/07/02 03:49:05;;;;;;;20.97;16.07;;;17.50;98.30;;;;;;5194870;22;20968;-84
2021/07/02 03:51:10;;;;;;;27.20;18.23;;;17.50;98.30;;;;;;5203502;22;20438;-83
2021/07/02 03:53:13;;;;;;;24.67;17.60;;;17.60;98.30;;;;;;5195224;22;20423;-83
2021/07/02 03:55:15;;;;;;;22.70;18.37;;;17.70;98.30;;;;;;5203364;22;20509;-84
2021/07/02 03:57:19;;;;;;;25.53;21.33;;;17.60;98.30;;;;;;5204150;22;20480;-83
2021/07/02 03:59:22;;;;;;;22.07;17.77;;;17.70;98.30;;;;;;5195173;22;20470;-83
2021/07/02 04:01:25;;;;;;;24.50;18.20;;;17.70;98.30;;;;;;5195350;22;20453;-83
2021/07/02 04:03:29;;;;;;;22.33;15.70;;;17.70;98.30;;;;;;5195267;22;20431;-83
2021/07/02 04:05:32;;;;;;;24.93;16.10;;;17.60;98.30;;;;;;5202557;22;20933;-83
2021/07/02 04:07:36;;;;;;;22.87;17.10;;;17.50;98.30;;;;;;5203475;22;20457;-83
2021/07/02 04:09:39;;;;;;;21.77;16.00;;;17.50;98.30;;;;;;5203475;22;20488;-83
2021/07/02 04:11:43;;;;;;;28.10;16.37;;;17.40;98.30;;;;;;5203851;22;20541;-83
2021/07/02 04:13:45;;;;;;;25.37;15.77;;;17.30;98.30;;;;;;5204481;22;20426;-84
2021/07/02 04:15:49;;;;;;;27.53;15.60;;;17.30;98.30;;;;;;5204020;22;20423;-83
2021/07/02 04:17:52;;;;;;;25.67;16.70;;;17.40;98.30;;;;;;5203535;22;20514;-83
2021/07/02 04:19:55;;;;;;;26.70;18.43;;;17.40;98.30;;;;;;5194730;22;20458;-83
2021/07/02 04:21:58;;;;;;;25.60;18.00;;;17.40;98.30;;;;;;5203502;22;20446;-83
2021/07/02 04:24:03;;;;;;;26.23;16.83;;;17.20;98.30;;;;;;5203153;22;20418;-83
2021/07/02 04:26:05;;;;;;;23.83;15.63;;;17.10;98.30;;;;;;5203348;22;20422;-83
2021/07/02 04:28:08;;;;;;;28.50;17.70;;;17.00;98.30;;;;;;5203305;22;20427;-84
2021/07/02 04:30:13;;;;;;;22.03;15.77;;;16.90;98.30;;;;;;5203105;22;20511;-83
2021/07/02 04:32:17;;;;;;;22.90;16.20;;;16.90;98.30;;;;;;5204266;22;20475;-83
2021/07/02 04:34:20;;;;;;;32.73;17.80;;;16.90;98.30;;;;;;5195340;22;20425;-83
2021/07/02 04:36:23;;;;;;;31.53;17.20;;;17.00;98.30;;;;;;5203873;22;21018;-83
2021/07/02 04:38:26;;;;;;;28.97;17.00;;;17.00;98.30;;;;;;5202356;22;20502;-83
2021/07/02 04:40:30;;;;;;;23.23;15.53;;;17.00;98.30;;;;;;5203360;22;20453;-82
2021/07/02 04:42:33;;;;;;;27.80;16.50;;;17.10;98.30;;;;;;5203546;22;21070;-83
2021/07/02 04:44:38;;;;;;;22.93;16.30;;;17.10;98.30;;;;;;5203284;22;20418;-84
2021/07/02 04:46:41;;;;;;;30.30;17.33;;;17.20;98.30;;;;;;5203840;22;20489;-83
2021/07/02 04:48:44;;;;;;;25.60;15.63;;;17.10;98.30;;;;;;5203820;22;20429;-83
2021/07/02 04:50:47;;;;;;;27.83;16.70;;;17.10;98.30;;;;;;5203464;22;20442;-83
2021/07/02 04:52:50;;;;;;;26.17;16.30;;;17.20;98.30;;;;;;5203293;22;20494;-83
2021/07/02 04:54:53;;;;;;;29.43;15.50;;;17.20;98.30;;;;;;5193391;22;20433;-84
2021/07/02 04:56:58;;;;;;;24.93;16.13;;;17.30;98.30;;;;;;5193836;22;20477;-83
2021/07/02 04:59:01;;;;;;;22.77;15.20;;;17.30;98.30;;;;;;5201482;22;20434;-84
2021/07/02 05:01:04;;;;;;;25.30;15.13;;;17.20;98.30;;;;;;5201400;22;20451;-83
2021/07/02 05:03:07;;;;;;;23.87;15.10;;;17.30;98.30;;;;;;5193011;22;20423;-83
2021/07/02 05:05:11;;;;;;;22.20;14.50;;;17.20;98.30;;;;;;5201802;22;20423;-83
2021/07/02 05:07:14;;;;;;;22.10;14.80;;;17.20;98.30;;;;;;5192747;22;20431;-83
2021/07/02 05:09:17;;;;;;;19.83;14.37;;;17.40;98.30;;;;;;5192717;22;20427;-83
2021/07/02 05:11:20;;;;;;;22.00;15.20;;;17.40;98.30;;;;;;5201536;22;20466;-84
2021/07/02 05:13:24;;;;;;;27.53;15.13;;;17.40;98.30;;;;;;5201305;22;20415;-83
2021/07/02 05:15:27;;;;;;;19.67;14.47;;;17.60;98.30;;;;;;5191529;22;20433;-83
2021/07/02 05:17:30;;;;;;;19.83;15.07;;;17.70;98.30;;;;;;5200720;22;20419;-83
2021/07/02 05:19:33;;;;;;;21.23;15.33;;;17.70;98.30;;;;;;5199254;22;20447;-84
2021/07/02 05:21:36;;;;;;;24.27;16.00;;;17.90;98.30;;;;;;5191870;22;20485;-83
2021/07/02 05:23:39;;;;;;;16.93;12.80;;;17.90;98.30;;;;;;5201441;22;20420;-83
2021/07/02 05:25:42;;;;;;;20.50;14.10;;;18.00;98.30;;;;;;5192976;22;20423;-83
2021/07/02 05:27:48;;;;;;;20.97;13.37;;;18.00;98.30;;;;;;5201398;22;20517;-83
2021/07/02 05:29:53;;;;;;;21.40;14.57;;;18.00;98.30;;;;;;5200942;22;20425;-83
2021/07/02 05:31:55;;;;;;;18.83;13.30;;;18.10;98.30;;;;;;5200891;22;20457;-83
2021/07/02 05:33:59;;;;;;;17.70;13.37;;;18.00;98.30;;;;;;5201720;22;20431;-84
2021/07/02 05:36:02;;;;;;;25.70;14.93;;;17.90;98.30;;;;;;5201197;22;20429;-83
2021/07/02 05:38:05;;;;;;;16.07;12.97;;;17.90;98.30;;;;;;5200860;22;20425;-83
2021/07/02 05:40:09;;;;;;;22.50;14.27;;;17.90;98.30;;;;;;5201009;22;20462;-83
2021/07/02 05:42:12;;;;;;;17.63;14.10;;;17.80;98.30;;;;;;5193042;22;20434;-83
2021/07/02 05:44:15;;;;;;;21.40;13.60;;;17.80;98.30;;;;;;5200802;22;20440;-83
2021/07/02 05:46:19;;;;;;;21.37;13.83;;;17.90;98.30;;;;;;5201330;22;20426;-83
2021/07/02 05:48:23;;;;;;;19.47;14.50;;;17.90;98.30;;;;;;5201150;22;20414;-82
2021/07/02 05:50:27;;;;;;;24.57;14.70;;;18.00;98.30;;;;;;5201646;22;20425;-83
2021/07/02 05:52:30;;;;;;;20.37;13.13;;;18.00;98.30;;;;;;5193577;22;20427;-84
2021/07/02 05:54:33;;;;;;;19.13;12.40;;;17.90;98.30;;;;;;5201881;22;20537;-83
2021/07/02 05:56:36;;;;;;;22.93;15.73;;;17.90;98.30;;;;;;5202260;22;20423;-84
2021/07/02 05:58:39;;;;;;;14.97;12.90;;;17.90;98.30;;;;;;5201855;22;20432;-83
2021/07/02 06:00:42;;;;;;;21.33;13.10;;;17.80;98.30;;;;;;5193901;22;20458;-82
2021/07/02 06:02:47;;;;;;;20.33;13.80;;;17.80;98.30;;;;;;5201426;22;20422;-83
2021/07/02 06:04:50;;;;;;;22.10;12.77;;;17.80;98.30;;;;;;5201580;22;20429;-82
2021/07/02 06:06:53;;;;;;;22.00;12.90;;;17.80;98.30;;;;;;5192953;22;20423;-82
2021/07/02 06:08:57;;;;;;;20.67;12.80;;;17.80;98.30;;;;;;5192059;22;20920;-83
2021/07/02 06:11:00;;;;;;;16.30;12.23;;;17.90;98.30;;;;;;5193541;22;20801;-82
2021/07/02 06:13:04;;;;;;;15.50;11.40;;;17.80;98.30;;;;;;5193159;22;20998;-82
2021/07/02 06:15:08;;;;;;;15.93;12.40;;;17.70;98.30;;;;;;5194671;22;20939;-82
2021/07/02 06:17:10;;;;;;;14.73;12.13;;;17.70;98.30;;;;;;5193523;22;20434;-82
2021/07/02 06:19:15;;;;;;;17.97;13.07;;;17.80;98.30;;;;;;5192657;22;20475;-82
2021/07/02 06:21:18;;;;;;;17.20;12.97;;;17.90;98.30;;;;;;5192665;22;20478;-83
2021/07/02 06:23:21;;;;;;;19.03;13.23;;;17.90;98.30;;;;;;5200781;22;20422;-83
2021/07/02 06:25:24;;;;;;;15.20;13.00;;;18.10;98.30;;;;;;5201815;22;20482;-83
2021/07/02 06:27:27;;;;;;;13.80;11.80;;;18.10;98.30;;;;;;5193646;22;20433;-83
2021/07/02 06:29:30;;;;;;;18.10;12.43;;;18.20;98.30;;;;;;5193475;22;20429;-81
2021/07/02 06:31:33;;;;;;;18.10;11.90;;;18.20;98.30;;;;;;5192632;22;20457;-80
2021/07/02 06:33:36;;;;;;;16.03;12.17;;;18.40;98.30;;;;;;5192672;22;20505;-81
2021/07/02 06:35:40;;;;;;;20.77;12.00;;;18.50;98.30;;;;;;5193003;22;20517;-81
2021/07/02 06:37:49;;;;;;;17.90;12.50;;;18.40;98.30;;;;;;5192679;22;20480;-81
2021/07/02 06:39:52;;;;;;;18.40;13.57;;;18.40;98.30;;;;;;5192189;22;20426;-81
2021/07/02 06:41:54;;;;;;;29.33;13.90;;;18.50;98.30;;;;;;5192671;22;20457;-81
2021/07/02 06:43:57;;;;;;;19.30;12.43;;;18.50;98.30;;;;;;5192477;22;20514;-81
2021/07/02 06:46:00;;;;;;;26.73;14.17;;;18.40;98.30;;;;;;5192608;22;20427;-81
2021/07/02 06:48:05;;;;;;;17.97;12.30;;;18.50;98.30;;;;;;5192295;22;20431;-81
2021/07/02 06:50:09;;;;;;;20.60;13.13;;;18.60;98.30;;;;;;5192208;22;20455;-81
2021/07/02 06:52:13;;;;;;;18.60;14.43;;;18.70;98.30;;;;;;5192667;22;20505;-81
2021/07/02 06:54:16;;;;;;;15.50;13.90;;;18.80;98.30;;;;;;5191546;22;20433;-81
2021/07/02 06:56:19;;;;;;;15.00;12.00;;;19.00;98.30;;;;;;5201290;22;20485;-81
2021/07/02 06:58:22;;;;;;;16.33;12.93;;;19.10;98.30;;;;;;5191525;22;20422;-81
2021/07/02 07:00:25;;;;;;;15.53;12.47;;;19.20;98.30;;;;;;5191961;22;20443;-81
2021/07/02 07:02:28;;;;;;;23.10;15.60;;;19.20;98.30;;;;;;5192095;22;20938;-81
2021/07/02 07:04:35;;;;;;;17.33;13.00;;;19.20;98.30;;;;;;5200277;22;20506;-81
2021/07/02 07:06:38;;;;;;;13.67;11.60;;;19.20;98.30;;;;;;5192528;22;20418;-81
2021/07/02 07:08:42;;;;;;;20.60;12.40;;;19.00;98.30;;;;;;5192133;22;20956;-81
2021/07/02 07:10:45;;;;;;;15.37;11.70;;;19.10;98.30;;;;;;5191842;22;20443;-81
2021/07/02 07:12:48;;;;;;;14.77;12.23;;;19.20;98.30;;;;;;5201029;22;20419;-81
2021/07/02 07:14:51;;;;;;;23.27;13.57;;;19.30;98.30;;;;;;5191995;22;20949;-81
2021/07/02 07:16:54;;;;;;;14.97;13.10;;;19.40;98.30;;;;;;5192441;22;20427;-81
2021/07/02 07:18:57;;;;;;;16.17;13.27;;;19.50;98.30;;;;;;5191968;22;20428;-81
2021/07/02 07:21:00;;;;;;;16.50;13.00;;;19.50;98.30;;;;;;5191955;22;20463;-81
2021/07/02 07:23:03;;;;;;;17.90;12.43;;;19.20;98.30;;;;;;5192183;22;21200;-81
2021/07/02 07:25:08;;;;;;;15.17;12.37;;;19.20;98.30;;;;;;5192379;22;20427;-81
2021/07/02 07:27:11;;;;;;;15.20;11.53;;;19.30;98.30;;;;;;5192120;22;20462;-81
2021/07/02 07:29:14;;;;;;;17.87;11.77;;;19.50;98.30;;;;;;5200465;22;20498;-81
2021/07/02 07:31:17;;;;;;;15.20;12.70;;;19.60;98.30;;;;;;5192366;22;20477;-80
2021/07/02 07:33:20;;;;;;;22.70;15.43;;;19.70;98.30;;;;;;5200244;22;20442;-81
2021/07/02 07:35:26;;;;;;;14.33;12.53;;;19.50;98.30;;;;;;5192213;22;20430;-81
2021/07/02 07:37:32;;;;;;;16.80;13.30;;;19.30;98.30;;;;;;5191441;22;20490;-81
2021/07/02 07:39:35;;;;;;;19.00;13.17;;;19.30;98.30;;;;;;5191338;22;20416;-81
2021/07/02 07:41:39;;;;;;;16.17;13.37;;;19.30;98.30;;;;;;5200139;22;20442;-80
2021/07/02 07:43:42;;;;;;;14.43;11.83;;;19.50;98.30;;;;;;5192354;22;20433;-81
2021/07/02 07:45:45;;;;;;;17.87;12.50;;;19.80;98.30;;;;;;5199901;22;20514;-81
2021/07/02 07:47:48;;;;;;;15.53;11.60;;;19.90;98.30;;;;;;5191972;22;20427;-81
2021/07/02 07:49:51;;;;;;;16.67;12.13;;;19.80;98.30;;;;;;5191780;22;20431;-81
2021/07/02 07:51:58;;;;;;;22.50;12.93;;;19.70;98.30;;;;;;5191754;22;20455;-80
2021/07/02 07:54:01;;;;;;;17.13;12.80;;;19.70;98.30;;;;;;5191670;22;20418;-81
2021/07/02 07:56:05;;;;;;;17.93;12.17;;;19.70;98.30;;;;;;5191724;22;20482;-81
2021/07/02 07:58:09;;;;;;;18.37;11.80;;;19.70;98.30;;;;;;5191548;22;20438;-81
2021/07/02 08:00:13;;;;;;;17.80;13.20;;;19.80;98.30;;;;;;5200371;22;20419;-81
2021/07/02 08:02:19;;;;;;;16.70;11.40;;;19.90;98.30;;;;;;5193095;22;20438;-81
2021/07/02 08:04:22;;;;;;;17.00;13.20;;;20.00;98.30;;;;;;5201689;22;20915;-81
2021/07/02 08:06:25;;;;;;;17.10;11.47;;;20.10;98.30;;;;;;5202150;22;20421;-81
2021/07/02 08:08:28;;;;;;;14.10;11.67;;;20.20;98.30;;;;;;5201323;22;20437;-81
2021/07/02 08:10:31;;;;;;;15.10;11.80;;;20.00;98.30;;;;;;5193445;22;20529;-81
2021/07/02 08:12:34;;;;;;;16.30;11.57;;;20.00;98.30;;;;;;5201612;22;20411;-81
2021/07/02 08:14:39;;;;;;;14.90;11.17;;;20.10;98.30;;;;;;5193251;22;20429;-81
2021/07/02 08:16:45;;;;;;;13.37;10.33;;;20.10;98.30;;;;;;5193587;22;20930;-81
2021/07/02 08:19:11;;;;;;;20.57;11.43;;;20.10;98.30;;;;;;5192831;22;20414;-81
2021/07/02 08:21:22;;;;;;;12.30;10.70;;;20.00;98.30;;;;;;5200982;22;20478;-80
2021/07/02 08:23:24;;;;;;;11.57;10.37;;;20.10;98.30;;;;;;5201591;22;20927;-81
2021/07/02 08:25:28;;;;;;;15.50;11.30;;;20.30;98.30;;;;;;5193147;22;20790;-80
2021/07/02 08:27:34;;;;;;;12.53;11.23;;;20.30;98.30;;;;;;5193454;22;20427;-81
2021/07/02 08:29:38;;;;;;;15.70;11.27;;;20.30;98.30;;;;;;5193170;22;20407;-81
2021/07/02 08:31:41;;;;;;;16.30;10.60;;;20.30;98.30;;;;;;5192539;22;20830;-81
2021/07/02 08:33:47;;;;;;;14.63;11.40;;;20.20;98.30;;;;;;5193132;22;20467;-81
2021/07/02 08:35:50;;;;;;;12.00;10.40;;;20.20;98.30;;;;;;5201514;22;20403;-81
2021/07/02 08:37:53;;;;;;;17.10;11.77;;;20.30;98.30;;;;;;5192918;22;20793;-81
2021/07/02 08:39:56;;;;;;;13.07;9.93;;;20.60;98.30;;;;;;5192991;22;20458;-81
2021/07/02 08:41:59;;;;;;;13.60;10.43;;;20.80;98.30;;;;;;5192939;22;20463;-81
2021/07/02 08:44:02;;;;;;;13.33;9.97;;;20.80;98.30;;;;;;5193006;22;20980;-81
2021/07/02 08:46:07;;;;;;;12.43;10.57;;;20.90;98.30;;;;;;5192992;22;20422;-81
2021/07/02 08:48:10;;;;;;;12.23;9.47;;;21.20;98.30;;;;;;5200922;22;20411;-81
2021/07/02 08:50:14;;;;;;;15.00;11.70;;;21.50;98.30;;;;;;5192557;22;20457;-81
2021/07/02 08:52:17;;;;;;;13.60;9.20;;;21.70;98.30;;;;;;5201109;22;20514;-81
2021/07/02 08:54:19;;;;;;;12.37;9.60;;;21.80;98.30;;;;;;5192884;22;20755;-81
2021/07/02 08:56:23;;;;;;;11.20;10.10;;;21.40;98.30;;;;;;5193003;22;20427;-81
2021/07/02 08:58:26;;;;;;;12.57;9.60;;;21.40;98.30;;;;;;5200705;22;20916;-81
2021/07/02 09:00:29;;;;;;;11.60;10.33;;;21.30;98.30;;;;;;5192920;22;20501;-81
2021/07/02 09:02:35;;;;;;;10.73;9.63;;;21.20;98.30;;;;;;5201076;22;20438;-81
2021/07/02 09:04:39;;;;;;;11.57;9.83;;;21.10;98.30;;;;;;5201564;22;21154;-81
2021/07/02 09:06:43;;;;;;;13.43;9.50;;;21.30;98.30;;;;;;5192405;22;20509;-81
2021/07/02 09:08:59;;;;;;;12.13;10.30;;;21.40;98.30;;;;;;5191944;22;20423;-81
2021/07/02 09:11:03;;;;;;;10.53;9.43;;;21.60;98.30;;;;;;5192511;22;20979;-81
2021/07/02 09:13:06;;;;;;;10.13;8.97;;;21.80;98.30;;;;;;5192744;22;20423;-81
2021/07/02 09:15:12;;;;;;;12.20;9.57;;;21.80;98.30;;;;;;5201004;22;20427;-81
2021/07/02 09:17:15;;;;;;;11.43;8.60;;;21.90;98.30;;;;;;5192641;22;20415;-81
2021/07/02 09:19:24;;;;;;;11.17;8.97;;;21.90;98.30;;;;;;5192152;22;20435;-81
2021/07/02 09:21:29;;;;;;;9.50;8.30;;;21.70;98.30;;;;;;5191978;22;20453;-81
2021/07/02 09:23:39;;;;;;;16.63;9.93;;;21.50;98.30;;;;;;5192665;22;20438;-81
2021/07/02 09:25:47;;;;;;;11.90;10.70;;;21.60;98.30;;;;;;5193075;22;20411;-81
2021/07/02 09:27:53;;;;;;;13.33;8.93;;;21.90;98.30;;;;;;5201027;22;20414;-81
2021/07/02 09:30:04;;;;;;;12.63;9.87;;;22.00;98.30;;;;;;5192553;22;20415;-81
2021/07/02 09:32:07;;;;;;;9.90;8.90;;;22.30;98.30;;;;;;5192616;22;20540;-81
2021/07/02 09:34:10;;;;;;;9.43;8.43;;;22.20;98.30;;;;;;5192508;22;20431;-81
2021/07/02 09:36:28;;;;;;;17.93;9.30;;;22.00;98.30;;;;;;5201664;22;20411;-81
2021/07/02 09:38:33;;;;;;;11.53;10.00;;;22.20;98.30;;;;;;5200875;22;20405;-81
2021/07/02 09:40:38;;;;;;;12.40;9.13;;;22.50;98.30;;;;;;5192186;22;20443;-81
2021/07/02 09:42:40;;;;;;;9.60;8.60;;;22.60;98.30;;;;;;5192400;22;20469;-81
2021/07/02 09:45:03;;;;;;;11.17;8.90;;;22.50;98.30;;;;;;5201047;22;20418;-81
2021/07/02 09:47:28;;;;;;;8.93;8.03;;;22.40;98.30;;;;;;5192499;22;20411;-81
2021/07/02 09:49:36;;;;;;;9.37;8.37;;;22.30;98.30;;;;;;5200902;22;20886;-81
2021/07/02 09:51:40;;;;;;;10.53;9.07;;;22.30;98.30;;;;;;5200872;22;20446;-81
2021/07/02 09:53:43;;;;;;;11.13;8.53;;;22.30;98.30;;;;;;5192516;22;20426;-81
2021/07/02 09:55:48;;;;;;;9.07;7.40;;;22.60;98.30;;;;;;5193000;22;20513;-81
2021/07/02 09:58:02;;;;;;;10.90;9.47;;;23.00;98.30;;;;;;5200623;22;20912;-81
2021/07/02 10:00:07;;;;;;;9.27;8.27;;;23.20;98.30;;;;;;5192357;22;20422;-81
2021/07/02 10:02:17;;;;;;;9.57;8.67;;;23.20;98.30;;;;;;5200983;22;20812;-81
2021/07/02 10:04:20;;;;;;;13.50;8.20;;;23.10;98.30;;;;;;5192547;22;20419;-81
2021/07/02 10:06:25;;;;;;;11.10;7.67;;;22.90;98.30;;;;;;5200977;22;20970;-82
2021/07/02 10:08:31;;;;;;;11.07;7.87;;;22.70;98.30;;;;;;5191840;22;20426;-81
2021/07/02 10:10:34;;;;;;;10.30;7.20;;;22.60;98.30;;;;;;5192593;22;20443;-81
2021/07/02 10:12:37;;;;;;;7.67;6.97;;;22.70;98.30;;;;;;5192865;22;20445;-81
2021/07/02 10:14:40;;;;;;;8.23;7.43;;;23.20;98.30;;;;;;5192230;22;20431;-81
2021/07/02 10:16:44;;;;;;;11.40;8.40;;;23.30;98.30;;;;;;5201053;22;20423;-81
2021/07/02 10:18:49;;;;;;;7.80;7.00;;;23.40;98.30;;;;;;5192559;22;20506;-81
2021/07/02 10:20:54;;;;;;;9.50;8.27;;;23.50;98.30;;;;;;5192591;22;20970;-81
2021/07/02 10:22:59;;;;;;;10.60;8.80;;;23.60;98.30;;;;;;5192480;22;20450;-81
2021/07/02 10:25:04;;;;;;;8.53;7.30;;;23.70;98.30;;;;;;5200819;22;20895;-81
2021/07/02 10:27:08;;;;;;;9.30;8.00;;;24.00;96.90;;;;;;5201302;22;20478;-81
2021/07/02 10:29:12;;;;;;;10.13;7.10;;;24.00;96.50;;;;;;5200850;22;20415;-81